Terminal Aerodrome Forecast
Issued by NWS Dallas/Fort Worth, TX

Home | Current Version | Previous Version | Text Only | Print | Product List | Glossary On
Versions: 1 2 3 4 5 6 7 8 9 10 11 12 13 14 15 16 17 18 19 20 21 22 23 24 25 26 27 28 29
000
FTUS44 KFWD 070316 AAA
TAFACT
TAF AMD
KACT 070316Z 0703/0724 14012KT P6SM SCT040 BKN300
     FM070600 16014KT P6SM BKN022
     FM070800 17012KT P6SM OVC011
      TEMPO 0709/0713 OVC007
     FM071600 17014KT P6SM BKN025
     FM071900 17015KT P6SM BKN035=

USA.gov is the U.S. government's official web portal to all federal, state and local government web resources and services.